createdAt,value
2018-12-03T00:00:41.199Z,19.28
2018-12-03T00:01:41.402Z,19.28
2018-12-03T00:02:41.337Z,19.28
2018-12-03T00:03:41.644Z,19.26
2018-12-03T00:04:41.486Z,19.27
2018-12-03T00:05:41.656Z,19.26
2018-12-03T00:06:41.654Z,19.26
2018-12-03T00:07:41.207Z,19.26
2018-12-03T00:08:41.423Z,19.25
2018-12-03T00:09:41.770Z,19.24
2018-12-03T00:10:41.403Z,19.25
2018-12-03T00:11:41.176Z,19.25
2018-12-03T00:12:41.383Z,19.25
2018-12-03T00:13:41.475Z,19.24
2018-12-03T00:14:41.114Z,19.24
2018-12-03T00:15:41.374Z,19.24
2018-12-03T00:16:41.340Z,19.24
2018-12-03T00:17:41.750Z,19.24
2018-12-03T00:18:41.501Z,19.23
2018-12-03T00:19:41.395Z,19.24
2018-12-03T00:20:41.193Z,19.23
2018-12-03T00:21:41.260Z,19.22
2018-12-03T00:22:41.104Z,19.22
2018-12-03T00:23:41.603Z,19.22
2018-12-03T00:24:41.322Z,19.22
2018-12-03T00:25:41.167Z,19.21
2018-12-03T00:26:41.337Z,19.2
2018-12-03T00:27:41.190Z,19.2
2018-12-03T00:28:41.348Z,19.2
2018-12-03T00:29:41.427Z,19.19
2018-12-03T00:30:41.329Z,19.2
2018-12-03T00:31:41.279Z,19.2
2018-12-03T00:32:41.224Z,19.2
2018-12-03T00:33:41.605Z,19.19
2018-12-03T00:34:41.145Z,19.19
2018-12-03T00:35:41.585Z,19.19
2018-12-03T00:36:41.981Z,19.18
2018-12-03T00:37:41.887Z,19.18
2018-12-03T00:38:42.254Z,19.17
2018-12-03T00:39:41.322Z,19.18
2018-12-03T00:40:41.337Z,19.18
2018-12-03T00:41:41.218Z,19.17
2018-12-03T00:42:41.405Z,19.18
2018-12-03T00:43:41.142Z,19.17
2018-12-03T00:44:41.291Z,19.17
2018-12-03T00:45:41.328Z,19.17
2018-12-03T00:46:41.483Z,19.16
2018-12-03T00:47:41.763Z,19.17
2018-12-03T00:48:41.244Z,19.16
2018-12-03T00:49:41.284Z,19.16
2018-12-03T00:50:41.157Z,19.15
2018-12-03T00:51:41.168Z,19.15
2018-12-03T00:52:41.358Z,19.15
2018-12-03T00:53:41.219Z,19.15
2018-12-03T00:54:41.331Z,19.14
2018-12-03T00:55:41.298Z,19.14
2018-12-03T00:56:41.647Z,19.14
2018-12-03T00:57:41.428Z,19.14
2018-12-03T00:58:41.654Z,19.13
2018-12-03T00:59:41.315Z,19.13
2018-12-03T01:00:41.213Z,19.13
2018-12-03T01:01:41.737Z,19.13
2018-12-03T01:02:41.618Z,19.12
2018-12-03T01:03:41.571Z,19.12
2018-12-03T01:04:41.114Z,19.12
2018-12-03T01:05:41.671Z,19.12
2018-12-03T01:06:41.503Z,19.12
2018-12-03T01:07:41.201Z,19.12
2018-12-03T01:08:41.854Z,19.12
2018-12-03T01:09:41.939Z,19.11
2018-12-03T01:10:41.303Z,19.11
2018-12-03T01:11:41.278Z,19.1
2018-12-03T01:12:41.685Z,19.11
2018-12-03T01:13:41.659Z,19.11
2018-12-03T01:14:41.124Z,19.09
2018-12-03T01:15:41.419Z,19.09
2018-12-03T01:16:41.264Z,19.09
2018-12-03T01:17:41.318Z,19.09
2018-12-03T01:18:41.299Z,19.08
2018-12-03T01:19:41.294Z,19.09
2018-12-03T01:20:41.244Z,19.08
2018-12-03T01:21:41.281Z,19.07
2018-12-03T01:22:41.135Z,19.08
2018-12-03T01:23:41.086Z,19.07
2018-12-03T01:24:41.327Z,19.08
2018-12-03T01:25:41.189Z,19.08
2018-12-03T01:26:41.361Z,19.07
2018-12-03T01:27:41.219Z,19.07
2018-12-03T01:28:41.760Z,19.07
2018-12-03T01:29:41.112Z,19.07
2018-12-03T01:30:41.279Z,19.06
2018-12-03T01:31:41.395Z,19.06
2018-12-03T01:32:41.228Z,19.06
2018-12-03T01:33:41.856Z,19.07
2018-12-03T01:34:41.221Z,19.06
2018-12-03T01:35:41.253Z,19.06
2018-12-03T01:36:41.132Z,19.06
2018-12-03T01:37:41.375Z,19.05
2018-12-03T01:38:41.635Z,19.04
2018-12-03T01:39:41.225Z,19.04
2018-12-03T01:40:41.703Z,19.04
2018-12-03T01:41:41.112Z,19.04
2018-12-03T01:42:41.309Z,19.04
2018-12-03T01:43:41.150Z,19.03
2018-12-03T01:44:41.259Z,19.04
2018-12-03T01:45:41.612Z,19.03
2018-12-03T01:46:41.372Z,19.03
2018-12-03T01:47:41.383Z,19.03
2018-12-03T01:48:41.351Z,19.02
2018-12-03T01:49:41.757Z,19.03
2018-12-03T01:50:41.479Z,19.03
2018-12-03T01:51:41.536Z,19.03
2018-12-03T01:52:41.653Z,19.02
2018-12-03T01:53:41.418Z,19.01
2018-12-03T01:54:41.190Z,19.01
2018-12-03T01:55:41.443Z,19.02
2018-12-03T01:56:41.442Z,19
2018-12-03T01:57:41.660Z,19.01
2018-12-03T01:58:41.368Z,19
2018-12-03T01:59:42.122Z,19
2018-12-03T02:00:41.827Z,19
2018-12-03T02:01:41.272Z,19
2018-12-03T02:02:42.164Z,18.99
2018-12-03T02:03:41.750Z,18.99
2018-12-03T02:04:41.572Z,18.99
2018-12-03T02:05:41.375Z,19
2018-12-03T02:06:41.320Z,18.99
2018-12-03T02:07:41.516Z,18.99
2018-12-03T02:08:41.296Z,18.99
2018-12-03T02:09:41.565Z,18.99
2018-12-03T02:10:41.653Z,18.98
2018-12-03T02:11:41.549Z,18.98
2018-12-03T02:12:41.460Z,18.97
2018-12-03T02:13:41.235Z,18.97
2018-12-03T02:14:41.598Z,18.98
2018-12-03T02:15:41.439Z,18.98
2018-12-03T02:16:41.317Z,18.97
2018-12-03T02:17:41.107Z,18.97
2018-12-03T02:18:41.516Z,18.97
2018-12-03T02:19:41.343Z,18.96
2018-12-03T02:20:41.203Z,18.96
2018-12-03T02:21:41.335Z,18.97
2018-12-03T02:22:41.150Z,18.96
2018-12-03T02:23:41.277Z,18.96
2018-12-03T02:24:41.107Z,18.96
2018-12-03T02:25:41.326Z,18.96
2018-12-03T02:26:41.348Z,18.95
2018-12-03T02:27:41.242Z,18.96
2018-12-03T02:28:41.676Z,18.96
2018-12-03T02:29:41.132Z,18.95
2018-12-03T02:30:41.291Z,18.96
2018-12-03T02:31:41.501Z,18.95
2018-12-03T02:32:41.269Z,18.94
2018-12-03T02:33:41.189Z,18.94
2018-12-03T02:34:41.331Z,18.94
2018-12-03T02:35:41.138Z,18.94
2018-12-03T02:36:41.226Z,18.93
2018-12-03T02:37:41.713Z,18.93
2018-12-03T02:38:41.169Z,18.93
2018-12-03T02:39:41.653Z,18.93
2018-12-03T02:40:41.192Z,18.92
2018-12-03T02:41:41.241Z,18.92
2018-12-03T02:42:41.220Z,18.92
2018-12-03T02:43:41.152Z,18.92
2018-12-03T02:44:42.095Z,18.93
2018-12-03T02:45:41.180Z,18.91
2018-12-03T02:46:41.620Z,18.92
2018-12-03T02:47:41.630Z,18.91
2018-12-03T02:48:41.803Z,18.92
2018-12-03T02:49:41.433Z,18.92
2018-12-03T02:50:41.357Z,18.91
2018-12-03T02:51:41.105Z,18.91
2018-12-03T02:52:41.295Z,18.91
2018-12-03T02:53:41.278Z,18.91
2018-12-03T02:54:41.087Z,18.91
2018-12-03T02:55:41.302Z,18.92
2018-12-03T02:56:41.161Z,18.91
2018-12-03T02:57:41.306Z,18.91
2018-12-03T02:58:41.151Z,18.9
2018-12-03T02:59:41.257Z,18.9
2018-12-03T03:00:41.277Z,18.89
2018-12-03T03:01:41.173Z,18.89
2018-12-03T03:02:41.310Z,18.9
2018-12-03T03:03:41.512Z,18.89
2018-12-03T03:04:41.249Z,18.89
2018-12-03T03:05:41.200Z,18.89
2018-12-03T03:06:41.286Z,18.89
2018-12-03T03:07:41.324Z,18.89
2018-12-03T03:08:41.070Z,18.88
2018-12-03T03:09:41.332Z,18.89
2018-12-03T03:10:41.241Z,18.88
2018-12-03T03:11:42.585Z,18.88
2018-12-03T03:12:41.252Z,18.88
2018-12-03T03:13:41.228Z,18.88
2018-12-03T03:14:41.317Z,18.88
2018-12-03T03:15:41.269Z,18.88
2018-12-03T03:16:41.583Z,18.88
2018-12-03T03:17:41.967Z,18.87
2018-12-03T03:18:41.350Z,18.88
2018-12-03T03:19:41.275Z,18.87
2018-12-03T03:20:41.532Z,18.86
2018-12-03T03:21:41.214Z,18.86
2018-12-03T03:22:41.119Z,18.85
2018-12-03T03:23:41.697Z,18.87
2018-12-03T03:24:41.174Z,18.85
2018-12-03T03:25:41.401Z,18.85
2018-12-03T03:26:41.376Z,18.85
2018-12-03T03:27:41.318Z,18.85
2018-12-03T03:28:41.154Z,18.85
2018-12-03T03:29:41.618Z,18.85
2018-12-03T03:30:41.692Z,18.84
2018-12-03T03:31:41.041Z,18.85
2018-12-03T03:32:41.736Z,18.84
2018-12-03T03:33:41.141Z,18.84
2018-12-03T03:34:41.193Z,18.83
2018-12-03T03:35:41.515Z,18.84
2018-12-03T03:36:41.528Z,18.83
2018-12-03T03:37:41.635Z,18.83
2018-12-03T03:38:41.646Z,18.84
2018-12-03T03:39:41.294Z,18.84
2018-12-03T03:40:41.374Z,18.84
2018-12-03T03:41:41.275Z,18.84
2018-12-03T03:42:41.092Z,18.84
2018-12-03T03:43:41.171Z,18.82
2018-12-03T03:44:41.270Z,18.82
2018-12-03T03:45:41.284Z,18.83
2018-12-03T03:46:41.249Z,18.82
2018-12-03T03:47:41.128Z,18.83
2018-12-03T03:48:41.304Z,18.83
2018-12-03T03:49:41.969Z,18.82
2018-12-03T03:50:41.654Z,18.82
2018-12-03T03:51:41.075Z,18.81
2018-12-03T03:52:41.540Z,18.81
2018-12-03T03:53:41.333Z,18.81
2018-12-03T03:54:41.173Z,18.8
2018-12-03T03:55:41.379Z,18.81
2018-12-03T03:56:41.218Z,18.8
2018-12-03T03:57:41.230Z,18.8
2018-12-03T03:58:41.391Z,18.8
2018-12-03T03:59:41.280Z,18.8
2018-12-03T04:00:41.487Z,18.8
2018-12-03T04:01:41.607Z,18.8
2018-12-03T04:02:41.489Z,18.8
2018-12-03T04:03:41.857Z,18.79
2018-12-03T04:04:41.335Z,18.78
2018-12-03T04:05:41.448Z,18.78
2018-12-03T04:06:41.258Z,18.8
2018-12-03T04:07:41.081Z,18.79
2018-12-03T04:08:41.161Z,18.79
2018-12-03T04:09:41.053Z,18.78
2018-12-03T04:10:41.636Z,18.78
2018-12-03T04:11:41.255Z,18.77
2018-12-03T04:12:41.613Z,18.78
2018-12-03T04:13:41.275Z,18.77
2018-12-03T04:14:41.398Z,18.77
2018-12-03T04:15:41.332Z,18.77
2018-12-03T04:16:41.593Z,18.76
2018-12-03T04:17:41.265Z,18.77
2018-12-03T04:18:41.418Z,18.77
2018-12-03T04:19:41.543Z,18.77
2018-12-03T04:20:41.736Z,18.77
2018-12-03T04:21:41.413Z,18.76
2018-12-03T04:22:41.205Z,18.76
2018-12-03T04:23:41.198Z,18.76
2018-12-03T04:24:41.447Z,18.76
2018-12-03T04:25:41.299Z,18.76
2018-12-03T04:26:41.029Z,18.76
2018-12-03T04:27:41.432Z,18.75
2018-12-03T04:28:41.484Z,18.75
2018-12-03T04:29:41.676Z,18.76
2018-12-03T04:30:41.113Z,18.76
2018-12-03T04:31:41.221Z,18.75
2018-12-03T04:32:41.142Z,18.73
2018-12-03T04:33:41.516Z,18.75
2018-12-03T04:34:41.104Z,18.76
2018-12-03T04:35:41.022Z,18.75
2018-12-03T04:36:41.360Z,18.74
2018-12-03T04:37:41.124Z,18.74
2018-12-03T04:38:41.260Z,18.75
2018-12-03T04:39:41.203Z,18.75
2018-12-03T04:40:41.139Z,18.74
2018-12-03T04:41:41.044Z,18.76
2018-12-03T04:42:41.237Z,18.76
2018-12-03T04:43:41.248Z,18.76
2018-12-03T04:44:41.075Z,18.76
2018-12-03T04:45:41.753Z,18.76
2018-12-03T04:46:41.091Z,18.76
2018-12-03T04:47:41.202Z,18.77
2018-12-03T04:48:40.992Z,18.77
2018-12-03T04:49:41.534Z,18.77
2018-12-03T04:50:41.354Z,18.77
2018-12-03T04:51:41.192Z,18.77
2018-12-03T04:52:41.661Z,18.78
2018-12-03T04:53:42.153Z,18.78
2018-12-03T04:54:41.307Z,18.78
2018-12-03T04:55:41.236Z,18.79
2018-12-03T04:56:41.228Z,18.79
2018-12-03T04:57:41.788Z,18.79
2018-12-03T04:58:41.950Z,18.8
2018-12-03T04:59:41.638Z,18.81
2018-12-03T05:00:41.310Z,18.8
2018-12-03T05:01:41.475Z,18.82
2018-12-03T05:02:41.452Z,18.82
2018-12-03T05:03:41.644Z,18.83
2018-12-03T05:04:41.489Z,18.83
2018-12-03T05:05:41.473Z,18.83
2018-12-03T05:06:41.569Z,18.85
2018-12-03T05:07:41.268Z,18.85
2018-12-03T05:08:41.355Z,18.86
2018-12-03T05:09:41.140Z,18.86
2018-12-03T05:10:41.231Z,18.87
2018-12-03T05:11:41.146Z,18.87
2018-12-03T05:12:41.468Z,18.88
2018-12-03T05:13:41.285Z,18.89
2018-12-03T05:14:41.284Z,18.9
2018-12-03T05:15:41.425Z,18.91
2018-12-03T05:16:41.068Z,18.91
2018-12-03T05:17:41.235Z,18.92
2018-12-03T05:18:41.051Z,18.92
2018-12-03T05:19:41.210Z,18.93
2018-12-03T05:20:41.591Z,18.93
2018-12-03T05:21:41.356Z,18.95
2018-12-03T05:22:41.229Z,18.95
2018-12-03T05:23:41.080Z,18.95
2018-12-03T05:24:41.570Z,18.96
2018-12-03T05:25:42.089Z,18.97
2018-12-03T05:26:41.537Z,18.97
2018-12-03T05:27:41.302Z,18.98
2018-12-03T05:28:41.189Z,18.98
2018-12-03T05:29:41.228Z,18.98
2018-12-03T05:30:41.321Z,18.99
2018-12-03T05:31:41.964Z,18.99
2018-12-03T05:32:41.527Z,18.99
2018-12-03T05:33:41.309Z,19
2018-12-03T05:34:41.010Z,19.01
2018-12-03T05:35:41.194Z,19
2018-12-03T05:36:42.012Z,19.01
2018-12-03T05:37:41.688Z,19.01
2018-12-03T05:38:41.242Z,19.02
2018-12-03T05:39:41.063Z,19.02
2018-12-03T05:40:41.297Z,19.01
2018-12-03T05:41:41.181Z,19.02
2018-12-03T05:42:41.158Z,19.02
2018-12-03T05:43:41.362Z,19.02
2018-12-03T05:44:41.122Z,19.03
2018-12-03T05:45:41.637Z,19.03
2018-12-03T05:46:41.082Z,19.03
2018-12-03T05:47:41.165Z,19.04
2018-12-03T05:48:41.382Z,19.03
2018-12-03T05:49:41.599Z,19.03
2018-12-03T05:50:41.131Z,19.05
2018-12-03T05:51:41.610Z,19.04
2018-12-03T05:52:41.341Z,19.04
2018-12-03T05:53:41.303Z,19.04
2018-12-03T05:54:41.357Z,19.04
2018-12-03T05:55:41.151Z,19.05
2018-12-03T05:56:41.522Z,19.05
2018-12-03T05:57:41.413Z,19.04
2018-12-03T05:58:41.134Z,19.05
2018-12-03T05:59:41.114Z,19.05
2018-12-03T06:00:41.351Z,19.05
2018-12-03T06:01:41.070Z,19.05
2018-12-03T06:02:41.262Z,19.05
2018-12-03T06:03:41.219Z,19.06
2018-12-03T06:04:41.387Z,19.06
2018-12-03T06:05:41.189Z,19.06
2018-12-03T06:06:41.024Z,19.07
2018-12-03T06:07:41.135Z,19.06
2018-12-03T06:08:41.205Z,19.07
2018-12-03T06:09:41.091Z,19.06
2018-12-03T06:10:41.240Z,19.06
2018-12-03T06:11:41.581Z,19.06
2018-12-03T06:12:41.287Z,19.05
2018-12-03T06:13:41.172Z,19.06
2018-12-03T06:14:41.366Z,19.06
2018-12-03T06:15:41.124Z,19.06
2018-12-03T06:16:41.085Z,19.06
2018-12-03T06:17:41.006Z,19.05
2018-12-03T06:18:41.183Z,19.06
2018-12-03T06:19:41.330Z,19.05
2018-12-03T06:20:41.042Z,19.06
2018-12-03T06:21:41.288Z,19.05
2018-12-03T06:22:41.049Z,19.05
2018-12-03T06:23:41.109Z,19.06
2018-12-03T06:24:41.054Z,19.06
2018-12-03T06:25:41.005Z,19.07
2018-12-03T06:26:41.210Z,19.04
2018-12-03T06:27:41.106Z,19.06
2018-12-03T06:28:41.221Z,19.06
2018-12-03T06:29:41.815Z,19.07
2018-12-03T06:30:41.287Z,19.06
2018-12-03T06:31:41.009Z,19.06
2018-12-03T06:32:41.635Z,19.06
2018-12-03T06:33:41.343Z,19.06
2018-12-03T06:34:41.102Z,19.05
2018-12-03T06:35:41.255Z,19.07
2018-12-03T06:36:41.068Z,19.05
2018-12-03T06:37:41.258Z,19.06
2018-12-03T06:38:41.142Z,19.06
2018-12-03T06:39:41.172Z,19.05
2018-12-03T06:40:41.343Z,19.05
2018-12-03T06:41:41.553Z,19.05
2018-12-03T06:42:41.651Z,19.05
2018-12-03T06:43:41.804Z,19.05
2018-12-03T06:44:41.186Z,19.05
2018-12-03T06:45:41.164Z,19.04
2018-12-03T06:46:41.193Z,19.04
2018-12-03T06:47:41.003Z,19.05
2018-12-03T06:48:41.505Z,19.04
2018-12-03T06:49:41.336Z,19.04
2018-12-03T06:50:41.404Z,19.04
2018-12-03T06:51:41.507Z,19.04
2018-12-03T06:52:41.279Z,19.05
2018-12-03T06:53:41.661Z,19.04
2018-12-03T06:54:42.596Z,19.05
2018-12-03T06:55:41.213Z,19.04
2018-12-03T06:56:41.301Z,19.04
2018-12-03T06:57:41.451Z,19.04
2018-12-03T06:58:41.184Z,19.03
2018-12-03T06:59:41.102Z,19.04
2018-12-03T07:00:41.605Z,19.03
2018-12-03T07:01:41.369Z,19.03
2018-12-03T07:02:41.268Z,19.02
2018-12-03T07:03:41.727Z,19.03
2018-12-03T07:04:41.122Z,19.02
2018-12-03T07:05:41.185Z,19.02
2018-12-03T07:06:41.419Z,19.01
2018-12-03T07:07:41.404Z,19.01
2018-12-03T07:08:41.979Z,19.01
2018-12-03T07:09:41.118Z,19.01
2018-12-03T07:10:40.971Z,19.01
2018-12-03T07:11:41.220Z,19.02
2018-12-03T07:12:41.661Z,19.01
2018-12-03T07:13:41.361Z,19
2018-12-03T07:14:41.294Z,19.01
2018-12-03T07:15:41.204Z,19.01
2018-12-03T07:16:41.173Z,19.01
2018-12-03T07:17:41.051Z,19.01
2018-12-03T07:18:42.065Z,19
2018-12-03T07:19:41.036Z,19
2018-12-03T07:20:41.173Z,19
2018-12-03T07:21:41.850Z,19
2018-12-03T07:22:41.301Z,19
2018-12-03T07:23:41.616Z,19
2018-12-03T07:24:41.143Z,19
2018-12-03T07:25:41.194Z,19
2018-12-03T07:26:41.366Z,18.99
2018-12-03T07:27:41.141Z,19
2018-12-03T07:28:41.451Z,19
2018-12-03T07:29:41.117Z,18.99
2018-12-03T07:30:41.186Z,19
2018-12-03T07:31:41.471Z,18.99
2018-12-03T07:32:41.252Z,19
2018-12-03T07:33:41.679Z,19
2018-12-03T07:34:41.030Z,19
2018-12-03T07:35:41.239Z,18.99
2018-12-03T07:36:41.154Z,18.99
2018-12-03T07:37:41.659Z,19
2018-12-03T07:38:41.941Z,19
2018-12-03T07:39:41.154Z,19
2018-12-03T07:40:41.097Z,19
2018-12-03T07:41:41.113Z,18.99
2018-12-03T07:42:41.169Z,18.99
2018-12-03T07:43:41.103Z,18.99
2018-12-03T07:44:41.196Z,18.99
2018-12-03T07:45:41.065Z,18.98
2018-12-03T07:46:41.589Z,18.99
2018-12-03T07:47:41.478Z,18.98
2018-12-03T07:48:41.226Z,18.98
2018-12-03T07:49:40.925Z,18.99
2018-12-03T07:50:41.166Z,18.99
2018-12-03T07:51:40.996Z,18.99
2018-12-03T07:52:41.147Z,18.99
2018-12-03T07:53:41.222Z,18.99
2018-12-03T07:54:41.115Z,18.99
2018-12-03T07:55:41.225Z,18.99
2018-12-03T07:56:41.021Z,18.99
2018-12-03T07:57:41.138Z,18.99
2018-12-03T07:58:41.019Z,18.99
2018-12-03T07:59:41.048Z,19
2018-12-03T08:00:40.948Z,18.99
2018-12-03T08:01:41.114Z,18.99
2018-12-03T08:02:41.207Z,18.99
2018-12-03T08:03:41.085Z,19
2018-12-03T08:04:41.123Z,18.98
2018-12-03T08:05:41.082Z,18.99
2018-12-03T08:06:41.152Z,18.99
2018-12-03T08:07:41.431Z,18.99
2018-12-03T08:08:41.149Z,18.99
2018-12-03T08:09:40.947Z,18.98
2018-12-03T08:10:41.291Z,18.99
2018-12-03T08:11:41.185Z,18.99
2018-12-03T08:12:41.471Z,18.98
2018-12-03T08:13:41.075Z,18.99
2018-12-03T08:14:40.995Z,18.99
2018-12-03T08:15:41.306Z,18.99
2018-12-03T08:16:40.972Z,18.98
2018-12-03T08:17:41.076Z,18.99
2018-12-03T08:18:41.055Z,19
2018-12-03T08:19:41.088Z,18.99
2018-12-03T08:20:41.072Z,18.99
2018-12-03T08:21:40.991Z,18.99
2018-12-03T08:22:41.438Z,18.99
2018-12-03T08:23:41.249Z,19
2018-12-03T08:24:41.272Z,19
2018-12-03T08:25:41.591Z,18.99
2018-12-03T08:26:41.005Z,19
2018-12-03T08:27:40.921Z,19
2018-12-03T08:28:41.896Z,18.99
2018-12-03T08:29:41.575Z,19
2018-12-03T08:30:40.976Z,18.99
2018-12-03T08:31:41.423Z,18.99
2018-12-03T08:32:41.396Z,18.98
2018-12-03T08:33:41.301Z,18.99
2018-12-03T08:34:41.268Z,18.99
2018-12-03T08:35:41.360Z,18.99
2018-12-03T08:36:40.957Z,19
2018-12-03T08:37:41.050Z,19
2018-12-03T08:38:41.086Z,19
2018-12-03T08:39:40.981Z,18.99
2018-12-03T08:40:41.161Z,19
2018-12-03T08:41:41.061Z,19
2018-12-03T08:42:41.557Z,19
2018-12-03T08:43:41.213Z,19
2018-12-03T08:44:41.410Z,18.99
2018-12-03T08:45:41.002Z,19
2018-12-03T08:46:41.086Z,19.01
2018-12-03T08:47:41.136Z,19
2018-12-03T08:48:41.421Z,19
2018-12-03T08:49:41.323Z,19
2018-12-03T08:50:41.187Z,19
2018-12-03T08:51:41.555Z,19
2018-12-03T08:52:41.265Z,19
2018-12-03T08:53:41.185Z,19
2018-12-03T08:54:41.160Z,19
2018-12-03T08:55:41.035Z,19
2018-12-03T08:56:41.054Z,19
2018-12-03T08:57:41.301Z,19
2018-12-03T08:58:41.420Z,19
2018-12-03T08:59:41.598Z,19
2018-12-03T09:00:41.009Z,19
2018-12-03T09:01:41.427Z,19
2018-12-03T09:02:41.032Z,19
2018-12-03T09:03:41.550Z,18.99
2018-12-03T09:04:41.270Z,18.99
2018-12-03T09:05:41.249Z,18.99
2018-12-03T09:06:41.009Z,18.99
2018-12-03T09:07:41.754Z,19
2018-12-03T09:08:41.175Z,19
2018-12-03T09:09:41.172Z,19
2018-12-03T09:10:41.231Z,19
2018-12-03T09:11:41.129Z,19
2018-12-03T09:12:41.161Z,19
2018-12-03T09:13:41.886Z,19
2018-12-03T09:14:41.153Z,18.99
2018-12-03T09:15:41.678Z,18.99
2018-12-03T09:16:41.023Z,19
2018-12-03T09:17:41.656Z,18.99
2018-12-03T09:18:40.971Z,18.99
2018-12-03T09:19:41.190Z,18.99
2018-12-03T09:20:41.151Z,18.99
2018-12-03T09:21:41.070Z,18.99
2018-12-03T09:22:41.251Z,18.99
2018-12-03T09:23:41.111Z,18.99
2018-12-03T09:24:41.070Z,18.99
2018-12-03T09:25:41.264Z,18.99
2018-12-03T09:26:41.675Z,18.99
2018-12-03T09:27:41.186Z,18.99
2018-12-03T09:28:41.043Z,18.99
2018-12-03T09:29:41.600Z,18.99
2018-12-03T09:30:40.967Z,19
2018-12-03T09:31:41.094Z,18.99
2018-12-03T09:32:41.123Z,18.99
2018-12-03T09:33:41.122Z,18.99
2018-12-03T09:34:41.183Z,18.99
2018-12-03T09:35:41.033Z,19
2018-12-03T09:36:41.430Z,19
2018-12-03T09:37:41.059Z,18.99
2018-12-03T09:38:41.259Z,19
2018-12-03T09:39:41.301Z,18.99
2018-12-03T09:40:41.458Z,19
2018-12-03T09:41:40.961Z,19
2018-12-03T09:42:41.030Z,19
2018-12-03T09:43:41.187Z,19.01
2018-12-03T09:44:41.143Z,19.02
2018-12-03T09:45:41.545Z,19.02
2018-12-03T09:46:41.402Z,19.03
2018-12-03T09:47:41.459Z,19.04
2018-12-03T09:48:42.084Z,19.03
2018-12-03T09:49:41.179Z,19.04
2018-12-03T09:50:40.894Z,19.03
2018-12-03T09:51:41.680Z,19.04
2018-12-03T09:52:41.210Z,19.04
2018-12-03T09:53:41.825Z,19.05
2018-12-03T09:54:41.565Z,19.05
2018-12-03T09:55:41.077Z,19.06
2018-12-03T09:56:41.081Z,19.06
2018-12-03T09:57:41.039Z,19.05
2018-12-03T09:58:41.090Z,19.06
2018-12-03T09:59:41.313Z,19.06
2018-12-03T10:00:40.947Z,19.07
2018-12-03T10:01:41.172Z,19.08
2018-12-03T10:02:41.492Z,19.07
2018-12-03T10:03:41.062Z,19.07
2018-12-03T10:04:41.480Z,19.09
2018-12-03T10:05:41.789Z,19.08
2018-12-03T10:06:41.328Z,19.09
2018-12-03T10:07:40.868Z,19.09
2018-12-03T10:08:41.449Z,19.09
2018-12-03T10:09:41.436Z,19.1
2018-12-03T10:10:41.399Z,19.11
2018-12-03T10:11:40.933Z,19.12
2018-12-03T10:12:41.352Z,19.11
2018-12-03T10:13:41.209Z,19.1
2018-12-03T10:14:40.983Z,19.11
2018-12-03T10:15:41.280Z,19.12
2018-12-03T10:16:40.987Z,19.12
2018-12-03T10:17:41.209Z,19.12
2018-12-03T10:18:40.964Z,19.13
2018-12-03T10:19:41.668Z,19.13
2018-12-03T10:20:42.216Z,19.13
2018-12-03T10:21:41.113Z,19.15
2018-12-03T10:22:41.213Z,19.14
2018-12-03T10:23:41.247Z,19.15
2018-12-03T10:24:41.072Z,19.15
2018-12-03T10:25:41.256Z,19.14
2018-12-03T10:26:41.049Z,19.15
2018-12-03T10:27:41.079Z,19.16
2018-12-03T10:28:40.961Z,19.17
2018-12-03T10:29:41.432Z,19.17
2018-12-03T10:30:41.159Z,19.16
2018-12-03T10:31:41.171Z,19.18
2018-12-03T10:32:41.137Z,19.17
2018-12-03T10:33:41.138Z,19.18
2018-12-03T10:34:41.094Z,19.18
2018-12-03T10:35:41.278Z,19.18
2018-12-03T10:36:41.286Z,19.19
2018-12-03T10:37:41.188Z,19.18
2018-12-03T10:38:41.165Z,19.17
2018-12-03T10:39:41.095Z,19.17
2018-12-03T10:40:41.097Z,19.16
2018-12-03T10:41:41.109Z,19.16
2018-12-03T10:42:40.954Z,19.15
2018-12-03T10:43:41.146Z,19.14
2018-12-03T10:44:41.029Z,19.14
2018-12-03T10:45:41.434Z,19.13
2018-12-03T10:46:41.345Z,19.13
2018-12-03T10:47:41.262Z,19.13
2018-12-03T10:48:41.007Z,19.12
2018-12-03T10:49:41.125Z,19.12
2018-12-03T10:50:41.135Z,19.12
2018-12-03T10:51:41.309Z,19.11
2018-12-03T10:52:40.957Z,19.12
2018-12-03T10:53:41.107Z,19.11
2018-12-03T10:54:41.161Z,19.11
2018-12-03T10:55:41.139Z,19.1
2018-12-03T10:56:41.010Z,19.11
2018-12-03T10:57:41.422Z,19.11
2018-12-03T10:58:41.010Z,19.1
2018-12-03T10:59:41.555Z,19.11
2018-12-03T11:00:40.938Z,19.1
2018-12-03T11:01:41.153Z,19.09
2018-12-03T11:02:40.900Z,19.09
2018-12-03T11:03:41.000Z,19.09
2018-12-03T11:04:41.100Z,19.08
2018-12-03T11:05:41.001Z,19.08
2018-12-03T11:06:41.274Z,19.08
2018-12-03T11:07:41.011Z,19.08
2018-12-03T11:08:41.156Z,19.08
2018-12-03T11:09:40.975Z,19.08
2018-12-03T11:10:40.873Z,19.07
2018-12-03T11:11:40.992Z,19.07
2018-12-03T11:12:41.012Z,19.06
2018-12-03T11:13:41.075Z,19.06
2018-12-03T11:14:41.024Z,19.06
2018-12-03T11:15:41.084Z,19.06
2018-12-03T11:16:40.889Z,19.06
2018-12-03T11:17:41.131Z,19.06
2018-12-03T11:18:40.955Z,19.06
2018-12-03T11:19:40.838Z,19.06
2018-12-03T11:20:41.067Z,19.05
2018-12-03T11:21:41.003Z,19.05
2018-12-03T11:22:41.087Z,19.05
2018-12-03T11:23:41.218Z,19.05
2018-12-03T11:24:41.339Z,19.05
2018-12-03T11:25:41.149Z,19.05
2018-12-03T11:26:41.076Z,19.05
2018-12-03T11:27:41.535Z,19.04
2018-12-03T11:28:41.127Z,19.04
2018-12-03T11:29:41.079Z,19.05
2018-12-03T11:30:40.980Z,19.04
2018-12-03T11:31:41.049Z,19.04
2018-12-03T11:32:41.019Z,19.03
2018-12-03T11:33:40.992Z,19.03
2018-12-03T11:34:41.037Z,19.04
2018-12-03T11:35:41.867Z,19.03
2018-12-03T11:36:41.084Z,19.03
2018-12-03T11:37:41.059Z,19.03
2018-12-03T11:38:41.079Z,19.03
2018-12-03T11:39:40.997Z,19.03
2018-12-03T11:40:41.073Z,19.03
2018-12-03T11:41:41.051Z,19.03
2018-12-03T11:42:41.225Z,19.03
2018-12-03T11:43:41.187Z,19.03
2018-12-03T11:44:41.119Z,19.03
2018-12-03T11:45:41.419Z,19.02
2018-12-03T11:46:41.301Z,19.03
2018-12-03T11:47:41.114Z,19.02
2018-12-03T11:48:41.284Z,19.02
2018-12-03T11:49:41.181Z,19.02
2018-12-03T11:50:41.098Z,19.02
2018-12-03T11:51:41.400Z,19.02
2018-12-03T11:52:41.126Z,19.02
2018-12-03T11:53:41.154Z,19.02
2018-12-03T11:54:40.959Z,19.01
2018-12-03T11:55:40.929Z,19.01
2018-12-03T11:56:41.268Z,19.01
2018-12-03T11:57:41.101Z,19.01
2018-12-03T11:58:40.961Z,19.01
2018-12-03T11:59:41.116Z,19.02
2018-12-03T12:00:41.169Z,19
2018-12-03T12:01:41.393Z,19.01
2018-12-03T12:02:41.067Z,19.01
2018-12-03T12:03:42.669Z,19.01
2018-12-03T12:04:40.759Z,19.01
2018-12-03T12:05:40.947Z,18.99
2018-12-03T12:06:40.979Z,18.99
2018-12-03T12:07:42.419Z,19
2018-12-03T12:08:41.011Z,19
2018-12-03T12:09:41.218Z,19
2018-12-03T12:10:41.252Z,19
2018-12-03T12:11:41.682Z,19
2018-12-03T12:12:41.348Z,19
2018-12-03T12:13:41.001Z,18.99
2018-12-03T12:14:41.077Z,18.99
2018-12-03T12:15:41.474Z,18.99
2018-12-03T12:16:40.981Z,18.99
2018-12-03T12:17:41.219Z,18.99
2018-12-03T12:18:40.972Z,18.99
2018-12-03T12:19:41.045Z,18.99
2018-12-03T12:20:42.738Z,19
2018-12-03T12:21:41.012Z,19
2018-12-03T12:22:40.868Z,18.99
2018-12-03T12:23:41.090Z,18.99
2018-12-03T12:24:41.149Z,18.99
2018-12-03T12:25:40.929Z,19
2018-12-03T12:26:41.488Z,18.99
2018-12-03T12:27:41.284Z,18.99
2018-12-03T12:28:41.375Z,18.99
2018-12-03T12:29:41.288Z,18.99
2018-12-03T12:30:41.037Z,18.99
2018-12-03T12:31:40.837Z,18.99
2018-12-03T12:32:40.973Z,18.98
2018-12-03T12:33:41.111Z,18.99
2018-12-03T12:34:40.940Z,18.98
2018-12-03T12:35:41.051Z,18.99
2018-12-03T12:36:41.035Z,18.98
2018-12-03T12:37:40.878Z,18.99
2018-12-03T12:38:41.060Z,18.98
2018-12-03T12:39:40.945Z,18.97
2018-12-03T12:40:41.024Z,18.98
2018-12-03T12:41:40.907Z,18.97
2018-12-03T12:42:41.013Z,18.97
2018-12-03T12:43:41.144Z,18.98
2018-12-03T12:44:40.913Z,18.97
2018-12-03T12:45:41.142Z,18.97
2018-12-03T12:46:40.947Z,18.98
2018-12-03T12:47:41.376Z,18.98
2018-12-03T12:48:40.892Z,18.97
2018-12-03T12:49:40.818Z,18.97
2018-12-03T12:50:40.970Z,18.97
2018-12-03T12:51:40.870Z,18.99
2018-12-03T12:52:41.090Z,18.99
2018-12-03T12:53:41.281Z,18.99
2018-12-03T12:54:41.007Z,19.01
2018-12-03T12:55:40.871Z,19.01
2018-12-03T12:56:40.987Z,19.02
2018-12-03T12:57:41.057Z,19.01
2018-12-03T12:58:41.398Z,19.04
2018-12-03T12:59:41.514Z,19.04
2018-12-03T13:00:41.221Z,19.04
2018-12-03T13:01:41.264Z,19.03